Airfield :
LOGIN :

Register | Disclaimer

   EN    FR    IT 

 










Legend :    VFR   Marginal VFR   IFR   Intensive IFR   Very Intensive IFR
Visi :
Ceiling :
>= 8 km
>= 3000ft
5 to 8 km
1000 to 3000 ft
1500m to 5 km
500 to 1000 ft
800 to 1500m
200 to 500 ft
< 800m
< 200 ft
Symbols :   Thunderstorms  Fog  Heavy snow  Heavy precipitations  Wind > 20 kt
SIGMETs :     Misc.  Thunderstorms  Icing  Turbulence  Mountain Waves  Volcanic Ashes






- Airport Elevation : 63 ft
- IATA code : BZM


EHWO - Woensdrecht Airbase

CURRENT METAR :
  • 190930Z AUTO 26008KT 220V280 9999 FEW010 SCT014 OVC016 17/14 Q1015 GRN

EXPIRED METARs :
  • 190925Z AUTO 25007KT 220V300 9999 FEW009 SCT012 OVC015 17/14 Q1015 GRN
  • 190855Z AUTO 25010KT 210V290 9000 BR FEW010 BKN012 OVC015 17/14 Q1015 GRN
  • 190847Z AUTO 25009KT 210V280 9999 FEW011 BKN013 OVC016 17/14 Q1015 GRN
  • 190828Z AUTO 23010KT 200V270 7000 BR SCT010 BKN012 OVC015 17/14 Q1015 GRN
  • 190755Z AUTO 24009KT 210V290 9999 OVC011 17/14 Q1015 GRN
  • 190725Z AUTO 23008KT 180V260 9999 BKN009 OVC011 17/14 Q1015 GRN
  • 190655Z AUTO 24010KT 190V270 9999 SCT009 OVC010 17/14 Q1014 GRN

Expired Forecast.



MET'MAP, your aeronautical weather chart ! - Copyright ORBIFLY December 2007 - Disclaimer

ORBIFLY MET'MAP TEAM :

Programming & Development : Alexandra Zaïnal
Concept & original design : Baudouin d'Aumeries
Assistance for programming : Marc-Olivier Méhu
Technical & hardware support : Manuel Goepfert

Contact : metmap@orbifly.com




SOURCES & CREDITS :

   NOAA